Time;durP1;ratioP1;P1;durP2;ratioP2;P2;SDS_P1;SDS_P2;PMS_P1;PMS_P2;Temp;Humidity;BMP_temperature;BMP_pressure;BME280_temperature;BME280_humidity;BME280_pressure;Samples;Min_cycle;Max_cycle;Signal;HPM_P1;HPM_P2
2022/07/20 00:01:50;;;;;;;12.40;7.00;;;;;;;16.80;64.02;99927.23;430811;1274;142896;-59
2022/07/20 00:11:56;;;;;;;11.70;6.70;;;;;;;16.69;64.46;99917.48;431998;1271;141253;-59
2022/07/20 00:22:02;;;;;;;10.90;6.30;;;;;;;16.61;64.81;99916.75;431899;1271;142735;-58
2022/07/20 00:32:08;;;;;;;11.80;7.10;;;;;;;16.49;64.91;99915.10;431441;1273;142436;-62
2022/07/20 00:42:14;;;;;;;12.70;7.50;;;;;;;16.39;65.17;99916.66;431932;1271;142790;-59
2022/07/20 00:52:20;;;;;;;12.60;7.90;;;;;;;16.31;65.63;99916.23;432605;1270;142812;-62
2022/07/20 01:02:26;;;;;;;16.50;8.30;;;;;;;16.24;65.97;99924.39;432185;1270;154568;-60
2022/07/20 01:12:32;;;;;;;16.50;7.90;;;;;;;16.15;66.25;99924.25;432097;1270;142114;-59
2022/07/20 01:22:38;;;;;;;12.60;6.50;;;;;;;16.10;66.68;99924.98;431602;1270;143052;-60
2022/07/20 01:32:44;;;;;;;11.20;7.40;;;;;;;16.04;66.88;99927.25;432001;1270;142143;-59
2022/07/20 01:42:50;;;;;;;12.30;6.60;;;;;;;16.01;67.29;99931.07;432434;1270;141276;-59
2022/07/20 01:52:56;;;;;;;16.70;7.30;;;;;;;15.94;67.29;99927.39;430738;1273;142838;-60
2022/07/20 02:03:02;;;;;;;11.50;7.30;;;;;;;15.84;67.53;99923.39;431393;1270;142276;-59
2022/07/20 02:13:08;;;;;;;12.90;7.40;;;;;;;15.71;67.59;99914.54;431522;1271;144692;-59
2022/07/20 02:23:13;;;;;;;12.80;6.40;;;;;;;15.61;67.97;99915.48;431215;1271;144362;-59
2022/07/20 02:33:19;;;;;;;12.60;6.50;;;;;;;15.65;67.71;99921.16;431277;1273;142589;-60
2022/07/20 02:43:25;;;;;;;12.80;6.90;;;;;;;15.78;67.70;99927.70;430640;1271;141883;-62
2022/07/20 02:53:31;;;;;;;14.90;7.20;;;;;;;15.80;67.68;99941.84;431127;1273;143303;-58
2022/07/20 03:03:37;;;;;;;13.00;6.90;;;;;;;15.75;67.95;99946.70;431213;1271;144031;-58
2022/07/20 03:13:43;;;;;;;17.60;7.50;;;;;;;15.92;67.99;99953.64;430542;1271;141936;-60
2022/07/20 03:23:49;;;;;;;12.60;6.40;;;;;;;16.75;67.46;99951.45;430831;1271;146212;-58
2022/07/20 03:33:55;;;;;;;6.50;5.10;;;;;;;17.96;65.03;99954.76;431406;1271;142270;-60
2022/07/20 03:44:01;;;;;;;40.60;9.40;;;;;;;18.38;63.55;99955.12;430887;1271;141803;-62
2022/07/20 03:54:08;;;;;;;24.00;7.60;;;;;;;18.76;62.71;99966.00;431159;1270;141819;-61
2022/07/20 04:04:13;;;;;;;10.20;4.40;;;;;;;19.31;61.47;99969.80;431339;1270;142264;-59
2022/07/20 04:14:19;;;;;;;8.60;5.60;;;;;;;20.26;59.71;99974.23;430683;1270;145743;-56
2022/07/20 04:24:25;;;;;;;4.70;3.90;;;;;;;25.44;54.81;99977.41;431006;1270;142453;-58
2022/07/20 04:34:31;;;;;;;5.10;4.10;;;;;;;31.32;45.32;99969.03;430778;1270;141806;-59
2022/07/20 04:44:44;;;;;;;6.20;5.50;;;;;;;34.63;38.75;99973.72;431125;1271;140533;-58
2022/07/20 04:54:48;;;;;;;;;;;;;;;37.25;34.21;99982.64;432085;1270;140120;-64
2022/07/20 05:04:54;;;;;;;5.40;4.20;;;;;;;39.76;30.63;99987.02;431403;1270;127287;-59
2022/07/20 05:15:00;;;;;;;4.60;4.20;;;;;;;42.62;27.37;99993.71;431974;1270;139663;-59
2022/07/20 05:25:07;;;;;;;4.40;4.00;;;;;;;44.97;24.24;99997.19;431489;1268;141537;-60
2022/07/20 05:35:13;;;;;;;4.80;3.70;;;;;;;46.49;22.39;100000.52;430846;1270;140941;-58
2022/07/20 05:45:19;;;;;;;5.00;3.90;;;;;;;47.28;20.54;100006.08;431090;1270;141591;-60
2022/07/20 05:55:25;;;;;;;5.30;3.60;;;;;;;47.90;19.20;100009.13;430830;1270;183702;-60
2022/07/20 06:05:31;;;;;;;4.60;4.00;;;;;;;49.11;18.09;100015.27;432187;1268;144616;-59
2022/07/20 06:15:38;;;;;;;5.40;3.30;;;;;;;49.99;17.24;100020.64;431936;1270;141651;-61
2022/07/20 06:25:44;;;;;;;4.00;3.00;;;;;;;50.63;16.42;100023.66;430909;1270;141278;-60
2022/07/20 06:35:49;;;;;;;6.10;4.00;;;;;;;52.16;15.40;100022.09;431811;1272;141702;-58
2022/07/20 06:45:55;;;;;;;4.10;3.80;;;;;;;53.04;14.26;100019.38;431679;1271;146368;-59
2022/07/20 06:56:01;;;;;;;6.30;5.00;;;;;;;53.20;13.91;100019.80;431321;1270;140861;-59
2022/07/20 07:06:08;;;;;;;5.70;5.40;;;;;;;55.07;13.28;100019.21;431751;1270;141918;-60
2022/07/20 07:16:14;;;;;;;7.30;6.80;;;;;;;55.47;12.79;100023.90;431591;1270;144765;-59
2022/07/20 07:26:21;;;;;;;9.30;8.80;;;;;;;55.86;11.84;100024.98;430590;1271;141418;-59
2022/07/20 07:36:27;;;;;;;9.70;9.40;;;;;;;55.18;11.72;100024.96;431461;1270;142190;-60
2022/07/20 07:46:33;;;;;;;12.40;11.90;;;;;;;56.48;11.48;100022.87;430532;1270;144978;-58
2022/07/20 07:56:40;;;;;;;11.90;11.40;;;;;;;56.78;10.95;100022.77;431047;1271;142066;-60
2022/07/20 08:06:48;;;;;;;3.50;2.80;;;;;;;54.56;10.90;100017.26;431906;1270;145338;-60
2022/07/20 08:16:54;;;;;;;2.60;2.10;;;;;;;45.64;13.94;100004.65;431143;1270;141432;-60
2022/07/20 08:27:00;;;;;;;3.00;2.70;;;;;;;40.13;17.67;100010.29;431436;1270;140775;-57
2022/07/20 08:37:06;;;;;;;4.50;2.90;;;;;;;37.94;19.69;100004.95;431508;1270;147257;-59
2022/07/20 08:47:15;;;;;;;7.10;3.80;;;;;;;36.92;21.11;100011.77;430431;1273;145962;-60
2022/07/20 08:57:21;;;;;;;3.70;2.60;;;;;;;36.66;21.47;100009.35;431649;1270;141206;-57
2022/07/20 09:07:41;;;;;;;3.50;2.30;;;;;;;36.42;21.93;100008.21;431013;1270;140902;-59
2022/07/20 09:17:47;;;;;;;3.10;2.90;;;;;;;36.03;22.60;100002.85;431160;1271;141835;-59
2022/07/20 09:27:54;;;;;;;3.40;2.80;;;;;;;36.34;22.46;99993.19;431451;1270;144634;-60
2022/07/20 09:38:02;;;;;;;3.30;2.50;;;;;;;36.24;22.52;99983.65;431288;1270;141252;-58
2022/07/20 09:48:12;;;;;;;2.80;2.60;;;;;;;35.54;22.81;99971.92;431884;1270;142508;-60
2022/07/20 09:58:21;;;;;;;2.40;2.20;;;;;;;34.60;23.52;99968.02;431935;1270;140784;-59
2022/07/20 10:08:29;;;;;;;3.10;2.80;;;;;;;34.26;23.62;99965.44;432528;1270;140803;-59
2022/07/20 10:18:35;;;;;;;2.80;2.50;;;;;;;34.17;23.84;99960.91;432098;1270;141311;-59
2022/07/20 10:28:41;;;;;;;4.50;2.30;;;;;;;33.87;23.91;99965.56;431419;1270;141558;-60
2022/07/20 10:38:47;;;;;;;5.80;2.30;;;;;;;33.25;24.39;99969.83;431929;1271;145183;-59
2022/07/20 10:48:53;;;;;;;3.20;2.70;;;;;;;32.80;24.75;99966.66;431759;1270;141584;-58
2022/07/20 10:59:02;;;;;;;6.20;2.10;;;;;;;32.68;24.69;99966.83;431501;1270;140726;-59
2022/07/20 11:09:12;;;;;;;2.00;1.80;;;;;;;32.46;24.74;99963.70;431633;1273;140754;-60
2022/07/20 11:19:21;;;;;;;5.70;2.60;;;;;;;32.22;24.74;99960.66;432732;1269;141014;-60
2022/07/20 11:29:28;;;;;;;5.90;2.40;;;;;;;32.24;24.77;99957.99;431902;1270;345307;-58
2022/07/20 11:39:33;;;;;;;2.80;2.00;;;;;;;32.05;25.04;99949.02;431737;1270;142742;-58
2022/07/20 11:49:39;;;;;;;3.00;2.30;;;;;;;31.81;24.98;99955.13;431623;1270;146578;-59
2022/07/20 11:59:47;;;;;;;2.40;2.20;;;;;;;31.89;25.20;99949.17;431929;1270;141250;-58
2022/07/20 12:09:53;;;;;;;5.30;3.00;;;;;;;31.95;25.32;99943.08;432362;1270;141514;-59
2022/07/20 12:20:00;;;;;;;4.20;2.30;;;;;;;31.85;25.38;99934.03;431780;1270;141651;-60
2022/07/20 12:30:26;;;;;;;4.90;2.00;;;;;;;31.83;25.64;99933.77;433167;1270;141099;-60
2022/07/20 12:40:42;;;;;;;3.20;1.90;;;;;;;31.91;25.78;99928.42;431461;1270;141557;-59
2022/07/20 12:50:48;;;;;;;2.60;2.00;;;;;;;31.83;25.70;99919.98;432253;1270;141840;-60
2022/07/20 13:00:53;;;;;;;3.40;1.90;;;;;;;31.69;25.52;99914.73;431709;1270;141413;-60
2022/07/20 13:10:59;;;;;;;3.90;2.30;;;;;;;31.57;25.43;99910.79;430776;1270;144616;-58
2022/07/20 13:21:05;;;;;;;2.20;2.00;;;;;;;31.44;25.72;99910.98;432475;1271;145232;-60
2022/07/20 13:31:11;;;;;;;3.20;2.00;;;;;;;31.47;25.95;99892.83;431930;1273;141114;-60
2022/07/20 13:41:37;;;;;;;4.80;2.70;;;;;;;31.48;25.93;99888.52;432422;1270;141159;-59
2022/07/20 13:51:44;;;;;;;2.00;1.80;;;;;;;31.50;26.11;99884.55;432552;1270;145721;-60
2022/07/20 14:02:09;;;;;;;4.00;1.70;;;;;;;31.44;25.97;99872.67;432048;1270;141356;-60
2022/07/20 14:12:16;;;;;;;1.90;1.80;;;;;;;31.40;26.22;99872.52;434719;1270;141782;-59
2022/07/20 14:22:22;;;;;;;4.00;2.00;;;;;;;31.41;26.10;99867.73;432209;1271;143488;-59
2022/07/20 14:32:28;;;;;;;3.10;2.10;;;;;;;31.35;26.38;99861.97;432932;1270;141002;-58
2022/07/20 14:42:34;;;;;;;4.30;2.10;;;;;;;31.33;26.58;99856.67;432268;1270;141360;-58
2022/07/20 14:52:40;;;;;;;1.80;1.60;;;;;;;31.37;26.46;99849.01;430762;1270;141708;-61
2022/07/20 15:02:46;;;;;;;2.20;1.70;;;;;;;31.33;26.35;99851.39;431793;1270;142375;-56
2022/07/20 15:12:52;;;;;;;2.70;1.40;;;;;;;31.32;26.47;99845.56;431605;1271;141683;-57
2022/07/20 15:22:58;;;;;;;6.40;1.80;;;;;;;31.33;26.46;99846.23;431405;1270;142042;-57
2022/07/20 15:33:04;;;;;;;3.90;1.30;;;;;;;31.27;26.43;99845.92;431698;1270;141815;-60
2022/07/20 15:43:15;;;;;;;1.90;1.40;;;;;;;31.22;26.23;99850.52;431219;1270;141489;-61
2022/07/20 15:53:21;;;;;;;6.40;2.10;;;;;;;31.15;26.36;99843.23;431421;1271;141844;-60
2022/07/20 16:03:26;;;;;;;1.80;1.70;;;;;;;31.01;26.62;99836.35;432314;1270;139926;-62
2022/07/20 16:13:32;;;;;;;5.40;1.50;;;;;;;30.88;26.71;99829.26;430569;1270;141678;-56
2022/07/20 16:23:38;;;;;;;1.30;1.20;;;;;;;30.76;26.59;99823.60;431438;1270;141544;-62
2022/07/20 16:33:44;;;;;;;3.50;1.40;;;;;;;30.62;26.92;99820.91;432587;1270;143037;-59
2022/07/20 16:43:50;;;;;;;2.70;1.40;;;;;;;30.47;26.80;99815.85;435183;1270;140841;-59
2022/07/20 16:53:57;;;;;;;2.80;1.30;;;;;;;30.31;27.05;99819.88;432027;1270;142797;-59
2022/07/20 17:04:03;;;;;;;2.90;1.30;;;;;;;30.12;27.29;99822.85;434517;1270;141347;-59
2022/07/20 17:14:09;;;;;;;3.10;1.30;;;;;;;29.98;27.86;99818.00;431265;1271;141264;-59
2022/07/20 17:24:15;;;;;;;2.00;1.80;;;;;;;29.98;28.48;99816.13;432394;1270;141283;-59
2022/07/20 17:34:21;;;;;;;2.60;1.70;;;;;;;29.70;28.93;99809.68;432509;1271;140602;-60
2022/07/20 17:44:27;;;;;;;2.40;1.50;;;;;;;29.48;29.27;99808.28;432081;1270;211980;-60
2022/07/20 17:54:33;;;;;;;2.30;2.10;;;;;;;29.23;29.71;99804.54;432008;1271;142931;-60
2022/07/20 18:04:39;;;;;;;27.80;14.10;;;;;;;28.90;30.13;99799.42;430863;1271;141534;-60
2022/07/20 18:14:45;;;;;;;4.40;2.80;;;;;;;28.61;30.51;99801.73;431394;1271;142219;-60
2022/07/20 18:24:51;;;;;;;9.90;7.40;;;;;;;28.28;31.11;99800.27;431465;1271;141225;-59
2022/07/20 18:34:57;;;;;;;10.20;5.10;;;;;;;27.97;31.91;99803.59;431285;1271;142600;-58
2022/07/20 18:45:04;;;;;;;13.70;12.00;;;;;;;27.47;32.46;99807.20;432381;1271;141251;-57
2022/07/20 18:55:10;;;;;;;5.90;3.80;;;;;;;27.03;33.39;99813.69;432221;1271;141060;-59
2022/07/20 19:05:16;;;;;;;14.90;11.90;;;;;;;26.56;34.03;99816.17;432676;1270;141387;-59
2022/07/20 19:15:23;;;;;;;3.80;3.00;;;;;;;26.11;34.92;99829.46;432326;1271;143351;-58
2022/07/20 19:25:28;;;;;;;4.00;3.10;;;;;;;25.71;36.34;99833.84;432135;1271;141639;-60
2022/07/20 19:35:45;;;;;;;5.80;2.70;;;;;;;25.30;37.05;99839.91;432018;1271;142752;-61
2022/07/20 19:45:51;;;;;;;6.70;3.40;;;;;;;24.97;37.76;99844.59;432345;1271;143301;-60
2022/07/20 19:55:59;;;;;;;13.80;5.80;;;;;;;24.55;39.95;99842.13;431754;1271;140441;-60
2022/07/20 20:06:05;;;;;;;12.20;4.50;;;;;;;24.06;41.12;99838.70;432891;1271;144956;-59
2022/07/20 20:16:12;;;;;;;6.30;4.10;;;;;;;23.84;41.12;99831.51;432033;1271;139912;-60
2022/07/20 20:26:18;;;;;;;9.70;5.40;;;;;;;23.65;41.59;99828.63;431406;1269;141660;-59
2022/07/20 20:36:24;;;;;;;7.20;4.90;;;;;;;23.35;43.44;99829.00;432100;1271;140600;-60
2022/07/20 20:46:32;;;;;;;10.10;6.00;;;;;;;22.81;45.64;99830.67;430829;1271;141352;-60
2022/07/20 20:56:38;;;;;;;7.90;3.90;;;;;;;22.36;46.85;99825.48;432542;1271;141483;-59
2022/07/20 21:06:44;;;;;;;10.00;4.60;;;;;;;21.88;48.50;99830.21;432314;1270;140482;-60
2022/07/20 21:16:51;;;;;;;9.80;5.00;;;;;;;21.45;49.76;99833.02;431567;1271;141448;-59
2022/07/20 21:26:57;;;;;;;10.90;5.30;;;;;;;21.06;50.56;99829.43;432070;1271;141336;-59
2022/07/20 21:37:04;;;;;;;7.90;4.70;;;;;;;21.11;49.56;99824.33;431501;1273;147407;-59
2022/07/20 21:47:10;;;;;;;5.70;3.20;;;;;;;21.44;48.49;99835.84;431571;1271;141875;-58
2022/07/20 21:57:16;;;;;;;8.90;4.70;;;;;;;21.65;47.68;99839.54;431671;1270;140502;-61
2022/07/20 22:07:22;;;;;;;5.90;4.20;;;;;;;21.85;47.12;99841.08;431466;1270;142197;-60
2022/07/20 22:17:28;;;;;;;7.40;3.90;;;;;;;21.98;46.74;99839.91;431063;1271;213195;-59
2022/07/20 22:27:34;;;;;;;4.30;3.90;;;;;;;22.37;46.59;99837.61;431424;1271;141263;-59
2022/07/20 22:37:40;;;;;;;5.80;3.50;;;;;;;22.52;47.28;99839.83;430741;1270;141409;-59
2022/07/20 22:47:46;;;;;;;3.40;3.10;;;;;;;21.94;48.57;99844.92;435239;1269;141467;-62
2022/07/20 22:57:52;;;;;;;4.00;3.60;;;;;;;21.62;49.33;99845.10;432902;1270;142998;-59
2022/07/20 23:08:02;;;;;;;7.70;3.70;;;;;;;21.26;49.88;99853.02;431344;1269;140906;-59
2022/07/20 23:18:08;;;;;;;6.20;4.00;;;;;;;21.32;49.52;99852.56;432626;1270;141914;-58
2022/07/20 23:28:14;;;;;;;4.60;3.90;;;;;;;21.87;48.84;99860.52;431647;1270;357475;-59
2022/07/20 23:38:20;;;;;;;4.10;3.80;;;;;;;21.98;48.41;99862.30;430763;1271;141283;-59
2022/07/20 23:48:26;;;;;;;8.80;4.80;;;;;;;21.86;48.42;99862.00;432258;1271;141535;-61
2022/07/20 23:58:31;;;;;;;4.40;4.00;;;;;;;21.58;48.73;99864.67;432032;1269;140863;-60
